sensor_id;sensor_type;location;lat;lon;timestamp;P1;durP1;ratioP1;P2;durP2;ratioP2
48627;SDS011;34424;52.234;6.500;2023-02-28T00:00:53;11.80;;;7.50;;
48627;SDS011;34424;52.234;6.500;2023-02-28T00:05:57;9.15;;;6.72;;
48627;SDS011;34424;52.234;6.500;2023-02-28T00:11:00;9.38;;;6.97;;
48627;SDS011;34424;52.234;6.500;2023-02-28T00:21:09;9.63;;;6.87;;
48627;SDS011;34424;52.234;6.500;2023-02-28T00:26:12;8.43;;;6.93;;
48627;SDS011;34424;52.234;6.500;2023-02-28T00:31:14;8.53;;;5.57;;
48627;SDS011;34424;52.234;6.500;2023-02-28T00:36:18;7.70;;;5.97;;
48627;SDS011;34424;52.234;6.500;2023-02-28T00:41:21;9.23;;;6.50;;
48627;SDS011;34424;52.234;6.500;2023-02-28T00:46:24;7.45;;;6.28;;
48627;SDS011;34424;52.234;6.500;2023-02-28T00:51:28;7.90;;;5.90;;
48627;SDS011;34424;52.234;6.500;2023-02-28T00:56:31;10.23;;;6.40;;
48627;SDS011;34424;52.234;6.500;2023-02-28T01:01:33;8.85;;;6.00;;
48627;SDS011;34424;52.234;6.500;2023-02-28T01:06:38;9.48;;;7.05;;
48627;SDS011;34424;52.234;6.500;2023-02-28T01:11:41;11.77;;;6.05;;
48627;SDS011;34424;52.234;6.500;2023-02-28T01:16:51;10.02;;;6.82;;
48627;SDS011;34424;52.234;6.500;2023-02-28T01:21:55;7.82;;;5.85;;
48627;SDS011;34424;52.234;6.500;2023-02-28T01:26:57;6.72;;;6.00;;
48627;SDS011;34424;52.234;6.500;2023-02-28T01:32:00;8.47;;;5.80;;
48627;SDS011;34424;52.234;6.500;2023-02-28T01:37:04;9.35;;;6.55;;
48627;SDS011;34424;52.234;6.500;2023-02-28T01:42:08;9.63;;;6.05;;
48627;SDS011;34424;52.234;6.500;2023-02-28T01:47:11;7.85;;;5.90;;
48627;SDS011;34424;52.234;6.500;2023-02-28T01:52:15;8.83;;;5.50;;
48627;SDS011;34424;52.234;6.500;2023-02-28T01:57:22;6.97;;;5.63;;
48627;SDS011;34424;52.234;6.500;2023-02-28T02:02:28;7.45;;;5.72;;
48627;SDS011;34424;52.234;6.500;2023-02-28T02:07:33;7.13;;;5.97;;
48627;SDS011;34424;52.234;6.500;2023-02-28T02:12:43;6.15;;;5.55;;
48627;SDS011;34424;52.234;6.500;2023-02-28T02:18:04;9.60;;;5.57;;
48627;SDS011;34424;52.234;6.500;2023-02-28T02:28:56;8.48;;;6.60;;
48627;SDS011;34424;52.234;6.500;2023-02-28T02:34:25;9.95;;;6.72;;
48627;SDS011;34424;52.234;6.500;2023-02-28T02:39:33;8.13;;;6.00;;
48627;SDS011;34424;52.234;6.500;2023-02-28T02:44:43;8.45;;;6.80;;
48627;SDS011;34424;52.234;6.500;2023-02-28T02:49:53;6.95;;;5.80;;
48627;SDS011;34424;52.234;6.500;2023-02-28T02:54:58;10.52;;;6.90;;
48627;SDS011;34424;52.234;6.500;2023-02-28T03:00:02;11.20;;;6.63;;
48627;SDS011;34424;52.234;6.500;2023-02-28T03:05:14;9.40;;;6.63;;
48627;SDS011;34424;52.234;6.500;2023-02-28T03:10:28;6.70;;;5.97;;
48627;SDS011;34424;52.234;6.500;2023-02-28T03:15:36;8.43;;;6.23;;
48627;SDS011;34424;52.234;6.500;2023-02-28T03:20:53;8.70;;;6.60;;
48627;SDS011;34424;52.234;6.500;2023-02-28T03:26:04;9.00;;;7.22;;
48627;SDS011;34424;52.234;6.500;2023-02-28T03:31:15;8.48;;;6.72;;
48627;SDS011;34424;52.234;6.500;2023-02-28T03:36:23;10.10;;;7.53;;
48627;SDS011;34424;52.234;6.500;2023-02-28T03:41:31;11.48;;;7.22;;
48627;SDS011;34424;52.234;6.500;2023-02-28T03:46:38;10.10;;;7.50;;
48627;SDS011;34424;52.234;6.500;2023-02-28T03:51:47;9.23;;;7.75;;
48627;SDS011;34424;52.234;6.500;2023-02-28T03:56:54;9.85;;;7.28;;
48627;SDS011;34424;52.234;6.500;2023-02-28T04:02:02;10.82;;;7.63;;
48627;SDS011;34424;52.234;6.500;2023-02-28T04:07:07;8.87;;;7.30;;
48627;SDS011;34424;52.234;6.500;2023-02-28T04:12:13;10.63;;;7.80;;
48627;SDS011;34424;52.234;6.500;2023-02-28T04:17:15;9.40;;;7.53;;
48627;SDS011;34424;52.234;6.500;2023-02-28T04:22:19;9.00;;;7.03;;
48627;SDS011;34424;52.234;6.500;2023-02-28T04:27:22;9.15;;;6.88;;
48627;SDS011;34424;52.234;6.500;2023-02-28T04:32:24;12.35;;;8.50;;
48627;SDS011;34424;52.234;6.500;2023-02-28T04:37:28;8.65;;;6.97;;
48627;SDS011;34424;52.234;6.500;2023-02-28T04:42:31;7.78;;;7.00;;
48627;SDS011;34424;52.234;6.500;2023-02-28T04:47:36;11.50;;;7.60;;
48627;SDS011;34424;52.234;6.500;2023-02-28T04:52:40;9.70;;;7.05;;
48627;SDS011;34424;52.234;6.500;2023-02-28T04:57:43;10.35;;;7.80;;
48627;SDS011;34424;52.234;6.500;2023-02-28T05:02:45;9.27;;;6.90;;
48627;SDS011;34424;52.234;6.500;2023-02-28T05:07:49;13.00;;;7.20;;
48627;SDS011;34424;52.234;6.500;2023-02-28T05:12:52;8.88;;;6.38;;
48627;SDS011;34424;52.234;6.500;2023-02-28T05:17:54;10.02;;;6.93;;
48627;SDS011;34424;52.234;6.500;2023-02-28T05:22:58;8.70;;;6.85;;
48627;SDS011;34424;52.234;6.500;2023-02-28T05:28:02;12.20;;;8.23;;
48627;SDS011;34424;52.234;6.500;2023-02-28T05:33:05;9.73;;;7.30;;
48627;SDS011;34424;52.234;6.500;2023-02-28T05:38:09;13.00;;;7.00;;
48627;SDS011;34424;52.234;6.500;2023-02-28T05:43:11;10.90;;;7.38;;
48627;SDS011;34424;52.234;6.500;2023-02-28T05:48:14;11.98;;;8.68;;
48627;SDS011;34424;52.234;6.500;2023-02-28T05:53:19;11.45;;;7.72;;
48627;SDS011;34424;52.234;6.500;2023-02-28T05:58:22;11.55;;;7.75;;
48627;SDS011;34424;52.234;6.500;2023-02-28T06:03:26;11.77;;;7.47;;
48627;SDS011;34424;52.234;6.500;2023-02-28T06:08:30;11.55;;;7.72;;
48627;SDS011;34424;52.234;6.500;2023-02-28T06:13:33;9.50;;;6.85;;
48627;SDS011;34424;52.234;6.500;2023-02-28T06:18:37;9.57;;;7.25;;
48627;SDS011;34424;52.234;6.500;2023-02-28T06:23:41;8.17;;;6.83;;
48627;SDS011;34424;52.234;6.500;2023-02-28T06:28:45;9.15;;;7.47;;
48627;SDS011;34424;52.234;6.500;2023-02-28T06:33:48;9.98;;;7.35;;
48627;SDS011;34424;52.234;6.500;2023-02-28T06:38:52;11.57;;;7.63;;
48627;SDS011;34424;52.234;6.500;2023-02-28T06:43:56;11.48;;;8.40;;
48627;SDS011;34424;52.234;6.500;2023-02-28T06:48:59;9.67;;;8.67;;
48627;SDS011;34424;52.234;6.500;2023-02-28T06:54:03;9.60;;;8.00;;
48627;SDS011;34424;52.234;6.500;2023-02-28T06:59:06;8.40;;;7.60;;
48627;SDS011;34424;52.234;6.500;2023-02-28T07:04:09;8.93;;;7.87;;
48627;SDS011;34424;52.234;6.500;2023-02-28T07:09:13;12.33;;;7.27;;
48627;SDS011;34424;52.234;6.500;2023-02-28T07:14:16;8.05;;;6.65;;
48627;SDS011;34424;52.234;6.500;2023-02-28T07:19:18;8.20;;;7.32;;
48627;SDS011;34424;52.234;6.500;2023-02-28T07:24:22;7.63;;;6.88;;
48627;SDS011;34424;52.234;6.500;2023-02-28T07:29:29;8.90;;;6.65;;
48627;SDS011;34424;52.234;6.500;2023-02-28T07:34:32;7.83;;;6.50;;
48627;SDS011;34424;52.234;6.500;2023-02-28T07:39:36;7.33;;;6.23;;
48627;SDS011;34424;52.234;6.500;2023-02-28T07:44:39;5.13;;;4.60;;
48627;SDS011;34424;52.234;6.500;2023-02-28T07:49:42;5.22;;;4.22;;
48627;SDS011;34424;52.234;6.500;2023-02-28T07:54:46;5.53;;;3.50;;
48627;SDS011;34424;52.234;6.500;2023-02-28T07:59:48;3.03;;;2.38;;
48627;SDS011;34424;52.234;6.500;2023-02-28T08:04:51;3.80;;;3.10;;
48627;SDS011;34424;52.234;6.500;2023-02-28T08:09:55;4.95;;;3.78;;
48627;SDS011;34424;52.234;6.500;2023-02-28T08:14:58;4.82;;;3.00;;
48627;SDS011;34424;52.234;6.500;2023-02-28T08:20:01;3.13;;;2.50;;
48627;SDS011;34424;52.234;6.500;2023-02-28T08:25:07;2.50;;;2.10;;
48627;SDS011;34424;52.234;6.500;2023-02-28T08:30:11;2.67;;;1.95;;
48627;SDS011;34424;52.234;6.500;2023-02-28T08:35:14;2.75;;;1.83;;
48627;SDS011;34424;52.234;6.500;2023-02-28T08:40:18;3.43;;;2.20;;
48627;SDS011;34424;52.234;6.500;2023-02-28T08:45:21;1.70;;;1.30;;
48627;SDS011;34424;52.234;6.500;2023-02-28T08:50:24;1.13;;;1.03;;
48627;SDS011;34424;52.234;6.500;2023-02-28T08:55:28;1.50;;;1.20;;
48627;SDS011;34424;52.234;6.500;2023-02-28T09:00:30;1.02;;;0.93;;
48627;SDS011;34424;52.234;6.500;2023-02-28T09:05:33;0.90;;;0.90;;
48627;SDS011;34424;52.234;6.500;2023-02-28T09:10:37;2.00;;;1.03;;
48627;SDS011;34424;52.234;6.500;2023-02-28T09:15:40;3.38;;;1.48;;
48627;SDS011;34424;52.234;6.500;2023-02-28T09:20:42;1.15;;;1.05;;
48627;SDS011;34424;52.234;6.500;2023-02-28T09:25:47;1.50;;;1.08;;
48627;SDS011;34424;52.234;6.500;2023-02-28T09:30:52;1.25;;;1.10;;
48627;SDS011;34424;52.234;6.500;2023-02-28T09:36:00;1.63;;;0.77;;
48627;SDS011;34424;52.234;6.500;2023-02-28T09:41:11;2.55;;;1.98;;
48627;SDS011;34424;52.234;6.500;2023-02-28T09:46:24;2.25;;;1.23;;
48627;SDS011;34424;52.234;6.500;2023-02-28T09:51:40;2.85;;;2.47;;
48627;SDS011;34424;52.234;6.500;2023-02-28T09:56:52;3.03;;;2.53;;
48627;SDS011;34424;52.234;6.500;2023-02-28T10:02:01;1.40;;;1.30;;
48627;SDS011;34424;52.234;6.500;2023-02-28T10:07:30;1.58;;;1.30;;
48627;SDS011;34424;52.234;6.500;2023-02-28T10:12:46;2.85;;;1.50;;
48627;SDS011;34424;52.234;6.500;2023-02-28T10:17:51;2.20;;;1.60;;
48627;SDS011;34424;52.234;6.500;2023-02-28T10:23:11;2.67;;;1.90;;
48627;SDS011;34424;52.234;6.500;2023-02-28T10:28:20;2.22;;;1.98;;
48627;SDS011;34424;52.234;6.500;2023-02-28T10:33:24;1.80;;;1.70;;
48627;SDS011;34424;52.234;6.500;2023-02-28T10:38:32;3.35;;;1.88;;
48627;SDS011;34424;52.234;6.500;2023-02-28T10:43:39;1.60;;;1.50;;
48627;SDS011;34424;52.234;6.500;2023-02-28T10:48:44;2.05;;;1.63;;
48627;SDS011;34424;52.234;6.500;2023-02-28T10:53:49;1.77;;;1.50;;
48627;SDS011;34424;52.234;6.500;2023-02-28T10:59:08;1.58;;;1.48;;
48627;SDS011;34424;52.234;6.500;2023-02-28T11:04:33;4.75;;;1.80;;
48627;SDS011;34424;52.234;6.500;2023-02-28T11:09:39;1.67;;;1.50;;
48627;SDS011;34424;52.234;6.500;2023-02-28T11:14:48;2.38;;;1.20;;
48627;SDS011;34424;52.234;6.500;2023-02-28T11:19:54;1.52;;;1.20;;
48627;SDS011;34424;52.234;6.500;2023-02-28T11:25:00;1.58;;;1.48;;
48627;SDS011;34424;52.234;6.500;2023-02-28T11:30:23;1.90;;;1.30;;
48627;SDS011;34424;52.234;6.500;2023-02-28T11:35:31;1.50;;;1.20;;
48627;SDS011;34424;52.234;6.500;2023-02-28T11:40:40;2.05;;;1.25;;
48627;SDS011;34424;52.234;6.500;2023-02-28T11:46:05;1.35;;;1.25;;
48627;SDS011;34424;52.234;6.500;2023-02-28T11:51:21;1.63;;;1.52;;
48627;SDS011;34424;52.234;6.500;2023-02-28T11:56:27;1.40;;;1.30;;
48627;SDS011;34424;52.234;6.500;2023-02-28T12:01:42;1.25;;;1.08;;
48627;SDS011;34424;52.234;6.500;2023-02-28T12:06:57;2.08;;;1.27;;
48627;SDS011;34424;52.234;6.500;2023-02-28T12:12:06;1.48;;;1.38;;
48627;SDS011;34424;52.234;6.500;2023-02-28T12:17:29;1.52;;;1.30;;
48627;SDS011;34424;52.234;6.500;2023-02-28T12:22:42;1.30;;;1.17;;
48627;SDS011;34424;52.234;6.500;2023-02-28T12:27:52;2.38;;;1.33;;
48627;SDS011;34424;52.234;6.500;2023-02-28T12:32:57;1.67;;;1.38;;
48627;SDS011;34424;52.234;6.500;2023-02-28T12:38:05;2.25;;;1.80;;
48627;SDS011;34424;52.234;6.500;2023-02-28T12:43:13;1.20;;;1.10;;
48627;SDS011;34424;52.234;6.500;2023-02-28T12:48:22;1.73;;;1.48;;
48627;SDS011;34424;52.234;6.500;2023-02-28T12:53:30;1.65;;;1.52;;
48627;SDS011;34424;52.234;6.500;2023-02-28T12:58:45;2.40;;;1.90;;
48627;SDS011;34424;52.234;6.500;2023-02-28T13:03:55;1.92;;;1.58;;
48627;SDS011;34424;52.234;6.500;2023-02-28T13:09:16;1.73;;;1.63;;
48627;SDS011;34424;52.234;6.500;2023-02-28T13:14:22;2.03;;;1.60;;
48627;SDS011;34424;52.234;6.500;2023-02-28T13:19:29;3.13;;;1.92;;
48627;SDS011;34424;52.234;6.500;2023-02-28T13:24:38;1.40;;;1.30;;
48627;SDS011;34424;52.234;6.500;2023-02-28T13:29:43;1.45;;;1.35;;
48627;SDS011;34424;52.234;6.500;2023-02-28T13:35:12;2.25;;;1.70;;
48627;SDS011;34424;52.234;6.500;2023-02-28T13:40:36;1.30;;;1.20;;
48627;SDS011;34424;52.234;6.500;2023-02-28T13:45:39;2.33;;;1.83;;
48627;SDS011;34424;52.234;6.500;2023-02-28T13:56:42;2.28;;;1.73;;
48627;SDS011;34424;52.234;6.500;2023-02-28T14:01:54;1.60;;;1.50;;
48627;SDS011;34424;52.234;6.500;2023-02-28T14:07:06;2.78;;;1.40;;
48627;SDS011;34424;52.234;6.500;2023-02-28T14:17:51;2.85;;;2.28;;
48627;SDS011;34424;52.234;6.500;2023-02-28T14:22:56;3.20;;;1.50;;
48627;SDS011;34424;52.234;6.500;2023-02-28T14:28:13;1.58;;;1.48;;
48627;SDS011;34424;52.234;6.500;2023-02-28T14:33:25;2.95;;;1.80;;
48627;SDS011;34424;52.234;6.500;2023-02-28T14:38:36;3.40;;;1.52;;
48627;SDS011;34424;52.234;6.500;2023-02-28T14:43:52;1.70;;;1.60;;
48627;SDS011;34424;52.234;6.500;2023-02-28T14:48:57;1.60;;;1.50;;
48627;SDS011;34424;52.234;6.500;2023-02-28T14:54:02;1.60;;;1.50;;
48627;SDS011;34424;52.234;6.500;2023-02-28T14:59:17;2.08;;;1.90;;
48627;SDS011;34424;52.234;6.500;2023-02-28T15:04:27;1.40;;;1.30;;
48627;SDS011;34424;52.234;6.500;2023-02-28T15:09:32;1.50;;;1.40;;
48627;SDS011;34424;52.234;6.500;2023-02-28T15:14:35;1.67;;;1.35;;
48627;SDS011;34424;52.234;6.500;2023-02-28T15:19:40;1.60;;;1.50;;
48627;SDS011;34424;52.234;6.500;2023-02-28T15:24:51;1.27;;;1.17;;
48627;SDS011;34424;52.234;6.500;2023-02-28T15:29:56;2.70;;;1.55;;
48627;SDS011;34424;52.234;6.500;2023-02-28T15:40:24;1.55;;;1.27;;
48627;SDS011;34424;52.234;6.500;2023-02-28T15:45:32;1.70;;;1.60;;
48627;SDS011;34424;52.234;6.500;2023-02-28T15:50:38;1.70;;;1.60;;
48627;SDS011;34424;52.234;6.500;2023-02-28T15:55:42;1.83;;;1.30;;
48627;SDS011;34424;52.234;6.500;2023-02-28T16:00:59;2.50;;;1.85;;
48627;SDS011;34424;52.234;6.500;2023-02-28T16:11:43;2.50;;;2.10;;
48627;SDS011;34424;52.234;6.500;2023-02-28T16:16:48;1.92;;;1.73;;
48627;SDS011;34424;52.234;6.500;2023-02-28T16:21:53;2.33;;;1.90;;
48627;SDS011;34424;52.234;6.500;2023-02-28T16:26:57;2.20;;;2.00;;
48627;SDS011;34424;52.234;6.500;2023-02-28T16:32:00;2.50;;;1.80;;
48627;SDS011;34424;52.234;6.500;2023-02-28T16:37:09;1.90;;;1.73;;
48627;SDS011;34424;52.234;6.500;2023-02-28T16:42:21;3.28;;;2.50;;
48627;SDS011;34424;52.234;6.500;2023-02-28T16:47:26;2.20;;;2.10;;
48627;SDS011;34424;52.234;6.500;2023-02-28T16:52:28;2.60;;;2.30;;
48627;SDS011;34424;52.234;6.500;2023-02-28T16:57:32;2.50;;;2.30;;
48627;SDS011;34424;52.234;6.500;2023-02-28T17:02:35;2.50;;;2.30;;
48627;SDS011;34424;52.234;6.500;2023-02-28T17:07:40;2.50;;;2.30;;
48627;SDS011;34424;52.234;6.500;2023-02-28T17:12:45;2.65;;;2.38;;
48627;SDS011;34424;52.234;6.500;2023-02-28T17:17:48;2.70;;;2.50;;
48627;SDS011;34424;52.234;6.500;2023-02-28T17:22:52;2.42;;;2.22;;
48627;SDS011;34424;52.234;6.500;2023-02-28T17:27:56;2.87;;;2.53;;
48627;SDS011;34424;52.234;6.500;2023-02-28T17:32:59;3.38;;;2.53;;
48627;SDS011;34424;52.234;6.500;2023-02-28T17:38:01;2.40;;;2.20;;
48627;SDS011;34424;52.234;6.500;2023-02-28T17:43:05;2.35;;;2.20;;
48627;SDS011;34424;52.234;6.500;2023-02-28T17:48:09;2.67;;;2.45;;
48627;SDS011;34424;52.234;6.500;2023-02-28T17:53:13;4.22;;;2.63;;
48627;SDS011;34424;52.234;6.500;2023-02-28T17:58:17;3.00;;;2.47;;
48627;SDS011;34424;52.234;6.500;2023-02-28T18:03:20;3.92;;;2.50;;
48627;SDS011;34424;52.234;6.500;2023-02-28T18:08:23;3.43;;;2.97;;
48627;SDS011;34424;52.234;6.500;2023-02-28T18:18:30;6.80;;;4.95;;
48627;SDS011;34424;52.234;6.500;2023-02-28T18:23:33;5.37;;;4.47;;
48627;SDS011;34424;52.234;6.500;2023-02-28T18:28:37;5.53;;;4.73;;
48627;SDS011;34424;52.234;6.500;2023-02-28T18:33:42;7.18;;;4.90;;
48627;SDS011;34424;52.234;6.500;2023-02-28T18:38:45;8.80;;;4.90;;
48627;SDS011;34424;52.234;6.500;2023-02-28T18:43:50;6.05;;;4.82;;
48627;SDS011;34424;52.234;6.500;2023-02-28T18:48:54;6.03;;;5.07;;
48627;SDS011;34424;52.234;6.500;2023-02-28T18:53:57;8.40;;;5.23;;
48627;SDS011;34424;52.234;6.500;2023-02-28T18:59:02;12.70;;;9.45;;
48627;SDS011;34424;52.234;6.500;2023-02-28T19:04:04;12.73;;;9.32;;
48627;SDS011;34424;52.234;6.500;2023-02-28T19:09:07;14.95;;;11.10;;
48627;SDS011;34424;52.234;6.500;2023-02-28T19:14:12;17.67;;;14.70;;
48627;SDS011;34424;52.234;6.500;2023-02-28T19:19:14;16.02;;;12.70;;
48627;SDS011;34424;52.234;6.500;2023-02-28T19:24:17;12.77;;;11.00;;
48627;SDS011;34424;52.234;6.500;2023-02-28T19:29:22;13.30;;;10.57;;
48627;SDS011;34424;52.234;6.500;2023-02-28T19:34:24;19.73;;;15.25;;
48627;SDS011;34424;52.234;6.500;2023-02-28T19:39:27;25.23;;;17.27;;
48627;SDS011;34424;52.234;6.500;2023-02-28T19:44:31;21.80;;;15.93;;
48627;SDS011;34424;52.234;6.500;2023-02-28T19:49:34;21.27;;;16.35;;
48627;SDS011;34424;52.234;6.500;2023-02-28T19:54:36;17.25;;;14.82;;
48627;SDS011;34424;52.234;6.500;2023-02-28T19:59:40;25.30;;;17.92;;
48627;SDS011;34424;52.234;6.500;2023-02-28T20:04:45;25.25;;;20.10;;
48627;SDS011;34424;52.234;6.500;2023-02-28T20:09:48;27.02;;;20.27;;
48627;SDS011;34424;52.234;6.500;2023-02-28T20:14:52;20.38;;;16.45;;
48627;SDS011;34424;52.234;6.500;2023-02-28T20:19:56;24.48;;;19.20;;
48627;SDS011;34424;52.234;6.500;2023-02-28T20:24:59;18.50;;;15.00;;
48627;SDS011;34424;52.234;6.500;2023-02-28T20:30:03;21.85;;;15.40;;
48627;SDS011;34424;52.234;6.500;2023-02-28T20:35:07;17.50;;;15.15;;
48627;SDS011;34424;52.234;6.500;2023-02-28T20:40:12;19.55;;;14.98;;
48627;SDS011;34424;52.234;6.500;2023-02-28T20:45:17;19.73;;;15.05;;
48627;SDS011;34424;52.234;6.500;2023-02-28T20:50:20;30.75;;;21.13;;
48627;SDS011;34424;52.234;6.500;2023-02-28T20:55:22;56.05;;;32.97;;
48627;SDS011;34424;52.234;6.500;2023-02-28T21:00:26;37.92;;;27.90;;
48627;SDS011;34424;52.234;6.500;2023-02-28T21:05:30;31.65;;;23.40;;
48627;SDS011;34424;52.234;6.500;2023-02-28T21:15:37;24.98;;;18.45;;
48627;SDS011;34424;52.234;6.500;2023-02-28T21:20:40;25.73;;;19.65;;
48627;SDS011;34424;52.234;6.500;2023-02-28T21:25:42;23.88;;;17.60;;
48627;SDS011;34424;52.234;6.500;2023-02-28T21:30:46;27.80;;;19.70;;
48627;SDS011;34424;52.234;6.500;2023-02-28T21:35:49;33.90;;;24.88;;
48627;SDS011;34424;52.234;6.500;2023-02-28T21:40:53;16.02;;;13.50;;
48627;SDS011;34424;52.234;6.500;2023-02-28T21:45:58;23.67;;;15.05;;
48627;SDS011;34424;52.234;6.500;2023-02-28T21:51:02;22.60;;;18.15;;
48627;SDS011;34424;52.234;6.500;2023-02-28T21:56:09;20.17;;;15.32;;
48627;SDS011;34424;52.234;6.500;2023-02-28T22:01:16;24.52;;;16.90;;
48627;SDS011;34424;52.234;6.500;2023-02-28T22:06:21;20.60;;;17.20;;
48627;SDS011;34424;52.234;6.500;2023-02-28T22:11:25;24.73;;;17.55;;
48627;SDS011;34424;52.234;6.500;2023-02-28T22:16:29;25.40;;;17.55;;
48627;SDS011;34424;52.234;6.500;2023-02-28T22:21:50;21.70;;;15.52;;
48627;SDS011;34424;52.234;6.500;2023-02-28T22:26:54;18.60;;;13.38;;
48627;SDS011;34424;52.234;6.500;2023-02-28T22:31:58;21.65;;;13.80;;
48627;SDS011;34424;52.234;6.500;2023-02-28T22:37:01;16.98;;;12.38;;
48627;SDS011;34424;52.234;6.500;2023-02-28T22:42:04;18.83;;;13.40;;
48627;SDS011;34424;52.234;6.500;2023-02-28T22:47:08;21.15;;;13.38;;
48627;SDS011;34424;52.234;6.500;2023-02-28T22:52:11;20.13;;;13.65;;
48627;SDS011;34424;52.234;6.500;2023-02-28T22:57:13;18.70;;;13.00;;
48627;SDS011;34424;52.234;6.500;2023-02-28T23:02:17;24.90;;;13.75;;
48627;SDS011;34424;52.234;6.500;2023-02-28T23:07:20;19.10;;;12.27;;
48627;SDS011;34424;52.234;6.500;2023-02-28T23:12:22;20.35;;;12.75;;
48627;SDS011;34424;52.234;6.500;2023-02-28T23:17:26;22.17;;;15.30;;
48627;SDS011;34424;52.234;6.500;2023-02-28T23:22:29;18.77;;;12.55;;
48627;SDS011;34424;52.234;6.500;2023-02-28T23:27:32;16.25;;;11.55;;
48627;SDS011;34424;52.234;6.500;2023-02-28T23:32:36;15.70;;;10.95;;
48627;SDS011;34424;52.234;6.500;2023-02-28T23:37:40;17.13;;;11.13;;
48627;SDS011;34424;52.234;6.500;2023-02-28T23:42:43;15.73;;;9.98;;
48627;SDS011;34424;52.234;6.500;2023-02-28T23:52:50;17.55;;;10.63;;
48627;SDS011;34424;52.234;6.500;2023-02-28T23:57:54;16.25;;;9.98;;
